createdAt,value
2023-03-01T00:01:48.230Z,98478.70
2023-03-01T00:04:16.496Z,98479.45
2023-03-01T00:06:47.124Z,98480.14
2023-03-01T00:09:16.331Z,98479.08
2023-03-01T00:11:46.056Z,98473.84
2023-03-01T00:14:14.832Z,98471.83
2023-03-01T00:16:44.889Z,98470.48
2023-03-01T00:19:19.009Z,98469.48
2023-03-01T00:21:47.549Z,98469.23
2023-03-01T00:24:15.908Z,98466.17
2023-03-01T00:26:44.322Z,98468.19
2023-03-01T00:29:12.367Z,98470.86
2023-03-01T00:31:40.316Z,98473.30
2023-03-01T00:34:09.048Z,98471.05
2023-03-01T00:36:39.256Z,98470.16
2023-03-01T00:39:12.931Z,98472.16
2023-03-01T00:41:41.537Z,98471.35
2023-03-01T00:44:10.861Z,98468.46
2023-03-01T00:46:39.371Z,98466.33
2023-03-01T00:49:07.598Z,98467.96
2023-03-01T00:51:35.651Z,98462.27
2023-03-01T00:54:04.240Z,98459.21
2023-03-01T00:56:32.737Z,98460.31
2023-03-01T00:59:02.494Z,98460.11
2023-03-01T01:01:32.299Z,98461.39
2023-03-01T01:04:05.216Z,98461.00
2023-03-01T01:06:36.394Z,98457.92
2023-03-01T01:09:07.820Z,98452.67
2023-03-01T01:11:37.577Z,98450.45
2023-03-01T01:14:05.647Z,98445.45
2023-03-01T01:16:34.542Z,98442.02
2023-03-01T01:19:03.575Z,98438.45
2023-03-01T01:21:32.172Z,98435.20
2023-03-01T01:24:00.701Z,98431.75
2023-03-01T01:26:32.486Z,98432.13
2023-03-01T01:29:02.212Z,98432.88
2023-03-01T01:31:31.410Z,98432.23
2023-03-01T01:34:01.622Z,98428.94
2023-03-01T01:36:30.264Z,98427.14
2023-03-01T01:38:59.619Z,98423.52
2023-03-01T01:41:30.095Z,98423.46
2023-03-01T01:44:16.841Z,98422.79
2023-03-01T01:46:53.828Z,98425.41
2023-03-01T01:49:42.269Z,98422.70
2023-03-01T01:52:21.919Z,98422.08
2023-03-01T01:55:08.024Z,98419.95
2023-03-01T01:57:50.409Z,98419.13
2023-03-01T02:00:25.447Z,98414.42
2023-03-01T02:03:00.060Z,98410.80
2023-03-01T02:06:04.393Z,98408.63
2023-03-01T02:08:36.767Z,98407.46
2023-03-01T02:11:06.672Z,98403.99
2023-03-01T02:13:35.774Z,98401.98
2023-03-01T02:16:06.434Z,98401.79
2023-03-01T02:18:34.673Z,98401.19
2023-03-01T02:21:31.019Z,98400.20
2023-03-01T02:24:08.207Z,98399.43
2023-03-01T02:26:46.200Z,98397.09
2023-03-01T02:29:14.271Z,98394.95
2023-03-01T02:31:42.803Z,98393.95
2023-03-01T02:34:23.831Z,98391.52
2023-03-01T02:36:56.517Z,98384.15
2023-03-01T02:39:34.514Z,98384.95
2023-03-01T02:42:05.071Z,98387.27
2023-03-01T02:44:33.423Z,98386.95
2023-03-01T02:47:04.549Z,98383.11
2023-03-01T02:49:36.010Z,98380.17
2023-03-01T02:52:21.670Z,98381.55
2023-03-01T02:55:02.767Z,98378.66
2023-03-01T02:57:33.536Z,98377.99
2023-03-01T03:00:08.289Z,98372.14
2023-03-01T03:02:38.223Z,98366.52
2023-03-01T03:05:15.736Z,98365.36
2023-03-01T03:07:46.241Z,98364.79
2023-03-01T03:10:21.402Z,98362.32
2023-03-01T03:12:57.042Z,98358.44
2023-03-01T03:15:26.804Z,98357.76
2023-03-01T03:17:55.348Z,98358.84
2023-03-01T03:20:27.478Z,98357.84
2023-03-01T03:22:57.774Z,98350.94
2023-03-01T03:25:28.110Z,98345.95
2023-03-01T03:28:00.426Z,98347.60
2023-03-01T03:30:30.451Z,98347.38
2023-03-01T03:32:59.882Z,98345.84
2023-03-01T03:35:34.472Z,98340.36
2023-03-01T03:38:07.541Z,98341.70
2023-03-01T03:40:35.724Z,98345.22
2023-03-01T03:43:10.245Z,98346.89
2023-03-01T03:45:38.949Z,98346.95
2023-03-01T03:48:09.153Z,98341.58
2023-03-01T03:50:39.297Z,98340.52
2023-03-01T03:53:10.348Z,98338.60
2023-03-01T03:55:40.379Z,98336.17
2023-03-01T03:58:10.835Z,98332.69
2023-03-01T04:00:41.945Z,98330.91
2023-03-01T04:03:10.963Z,98330.63
2023-03-01T04:05:40.690Z,98330.64
2023-03-01T04:08:09.796Z,98330.59
2023-03-01T04:10:44.735Z,98337.17
2023-03-01T04:13:15.767Z,98340.77
2023-03-01T04:15:44.161Z,98343.53
2023-03-01T04:18:17.427Z,98343.42
2023-03-01T04:20:46.209Z,98344.59
2023-03-01T04:23:19.531Z,98346.21
2023-03-01T04:25:55.049Z,98344.73
2023-03-01T04:28:31.199Z,98348.10
2023-03-01T04:31:07.388Z,98351.54
2023-03-01T04:33:35.865Z,98351.17
2023-03-01T04:36:06.422Z,98349.40
2023-03-01T04:38:35.079Z,98352.67
2023-03-01T04:41:04.584Z,98358.03
2023-03-01T04:43:32.918Z,98353.45
2023-03-01T04:46:05.255Z,98350.91
2023-03-01T04:48:33.904Z,98359.09
2023-03-01T04:51:02.198Z,98361.73
2023-03-01T04:53:31.242Z,98367.06
2023-03-01T04:56:00.264Z,98368.06
2023-03-01T04:58:29.575Z,98369.31
2023-03-01T05:00:57.955Z,98371.68
2023-03-01T05:03:26.433Z,98375.99
2023-03-01T05:05:54.805Z,98381.14
2023-03-01T05:08:22.883Z,98385.91
2023-03-01T05:10:53.087Z,98391.36
2023-03-01T05:13:22.407Z,98390.67
2023-03-01T05:16:00.039Z,98391.81
2023-03-01T05:18:31.396Z,98389.27
2023-03-01T05:21:12.321Z,98390.23
2023-03-01T05:23:41.009Z,98388.58
2023-03-01T05:26:25.911Z,98391.73
2023-03-01T05:28:59.988Z,98398.52
2023-03-01T05:31:29.236Z,98397.67
2023-03-01T05:33:57.462Z,98396.52
2023-03-01T05:36:25.554Z,98395.71
2023-03-01T05:38:54.000Z,98399.30
2023-03-01T05:41:22.061Z,98397.55
2023-03-01T05:43:50.678Z,98395.08
2023-03-01T05:46:18.832Z,98393.05
2023-03-01T05:48:46.888Z,98396.50
2023-03-01T05:51:14.858Z,98398.31
2023-03-01T05:53:42.792Z,98398.33
2023-03-01T05:56:10.904Z,98398.70
2023-03-01T05:58:39.729Z,98396.25
2023-03-01T06:01:13.436Z,98398.86
2023-03-01T06:03:41.579Z,98399.90
2023-03-01T06:06:09.635Z,98399.77
2023-03-01T06:08:37.606Z,98403.59
2023-03-01T06:11:06.394Z,98406.55
2023-03-01T06:13:34.676Z,98405.25
2023-03-01T06:16:06.990Z,98403.16
2023-03-01T06:18:35.339Z,98408.17
2023-03-01T06:21:03.792Z,98415.17
2023-03-01T06:23:32.791Z,98420.59
2023-03-01T06:26:01.582Z,98415.30
2023-03-01T06:28:29.619Z,98411.70
2023-03-01T06:30:57.763Z,98408.52
2023-03-01T06:33:25.789Z,98412.02
2023-03-01T06:35:57.714Z,98411.41
2023-03-01T06:38:26.052Z,98409.10
2023-03-01T06:40:55.431Z,98414.14
2023-03-01T06:43:24.733Z,98417.99
2023-03-01T06:45:52.712Z,98417.40
2023-03-01T06:48:20.661Z,98420.73
2023-03-01T06:50:48.678Z,98420.20
2023-03-01T06:53:16.760Z,98417.45
2023-03-01T06:55:44.981Z,98420.47
2023-03-01T06:58:13.149Z,98421.33
2023-03-01T07:00:42.022Z,98418.25
2023-03-01T07:03:10.362Z,98419.17
2023-03-01T07:05:39.001Z,98415.55
2023-03-01T07:08:07.273Z,98411.61
2023-03-01T07:10:35.346Z,98414.36
2023-03-01T07:13:03.424Z,98409.52
2023-03-01T07:15:31.345Z,98410.20
2023-03-01T07:17:59.597Z,98410.48
2023-03-01T07:20:27.739Z,98413.57
2023-03-01T07:22:59.384Z,98408.55
2023-03-01T07:25:27.713Z,98403.32
2023-03-01T07:27:55.898Z,98399.11
2023-03-01T07:30:27.146Z,98401.97
2023-03-01T07:32:57.116Z,98399.13
2023-03-01T07:35:28.070Z,98398.24
2023-03-01T07:37:56.322Z,98392.66
2023-03-01T07:40:24.378Z,98387.32
2023-03-01T07:42:57.480Z,98383.85
2023-03-01T07:45:26.792Z,98382.55
2023-03-01T07:47:56.437Z,98380.86
2023-03-01T07:50:24.967Z,98379.09
2023-03-01T07:52:53.118Z,98375.80
2023-03-01T07:55:21.292Z,98377.10
2023-03-01T07:57:49.274Z,98374.86
2023-03-01T08:00:17.955Z,98375.48
2023-03-01T08:02:46.517Z,98374.20
2023-03-01T08:05:14.720Z,98370.80
2023-03-01T08:07:42.777Z,98370.47
2023-03-01T08:10:11.881Z,98365.74
2023-03-01T08:12:39.864Z,98364.15
2023-03-01T08:15:08.847Z,98362.80
2023-03-01T08:17:36.817Z,98365.14
2023-03-01T08:20:07.927Z,98359.50
2023-03-01T08:22:36.022Z,98352.19
2023-03-01T08:25:04.487Z,98349.61
2023-03-01T08:27:32.428Z,98345.64
2023-03-01T08:30:00.321Z,98343.73
2023-03-01T08:32:28.545Z,98337.04
2023-03-01T08:34:56.770Z,98333.27
2023-03-01T08:37:24.841Z,98334.41
2023-03-01T08:39:52.830Z,98331.10
2023-03-01T08:42:20.771Z,98325.57
2023-03-01T08:44:48.912Z,98326.14
2023-03-01T08:47:18.660Z,98319.42
2023-03-01T08:49:46.624Z,98319.07
2023-03-01T08:52:14.591Z,98314.93
2023-03-01T08:54:42.662Z,98312.31
2023-03-01T08:57:10.720Z,98307.87
2023-03-01T08:59:38.804Z,98305.44
2023-03-01T09:02:13.703Z,98307.87
2023-03-01T09:04:42.326Z,98306.70
2023-03-01T09:07:10.465Z,98302.45
2023-03-01T09:09:38.971Z,98303.15
2023-03-01T09:12:07.250Z,98296.53
2023-03-01T09:14:35.522Z,98298.04
2023-03-01T09:17:04.257Z,98294.83
2023-03-01T09:19:32.382Z,98288.02
2023-03-01T09:22:00.271Z,98288.77
2023-03-01T09:24:28.221Z,98284.99
2023-03-01T09:26:57.628Z,98286.90
2023-03-01T09:29:27.029Z,98287.58
2023-03-01T09:31:56.373Z,98281.97
2023-03-01T09:34:25.443Z,98272.20
2023-03-01T09:36:53.791Z,98271.39
2023-03-01T09:39:21.970Z,98268.08
2023-03-01T09:41:54.472Z,98262.95
2023-03-01T09:44:51.693Z,98254.73
2023-03-01T09:47:23.942Z,98251.88
2023-03-01T09:50:19.688Z,98249.23
2023-03-01T09:53:02.256Z,98244.45
2023-03-01T09:55:41.633Z,98245.44
2023-03-01T09:58:43.665Z,98250.09
2023-03-01T10:01:22.416Z,98243.84
2023-03-01T10:04:07.580Z,98240.30
2023-03-01T10:06:36.038Z,98239.12
2023-03-01T10:09:18.176Z,98237.92
2023-03-01T10:11:56.165Z,98235.13
2023-03-01T10:15:13.645Z,98233.52
2023-03-01T10:17:50.482Z,98233.63
2023-03-01T10:20:23.111Z,98233.71
2023-03-01T10:22:53.515Z,98234.13
2023-03-01T10:26:01.802Z,98233.52
2023-03-01T10:28:43.488Z,98225.61
2023-03-01T10:31:18.060Z,98225.77
2023-03-01T10:33:46.144Z,98223.48
2023-03-01T10:36:14.263Z,98222.61
2023-03-01T10:39:22.036Z,98216.81
2023-03-01T10:42:29.544Z,98219.05
2023-03-01T10:44:57.943Z,98221.09
2023-03-01T10:47:28.923Z,98213.92
2023-03-01T10:50:03.049Z,98212.67
2023-03-01T10:52:41.643Z,98207.66
2023-03-01T10:55:28.337Z,98202.75
2023-03-01T10:58:23.251Z,98200.97
2023-03-01T11:00:55.332Z,98199.16
2023-03-01T11:03:38.607Z,98204.02
2023-03-01T11:06:12.360Z,98197.35
2023-03-01T11:08:43.865Z,98197.63
2023-03-01T11:11:34.452Z,98192.77
2023-03-01T11:14:26.328Z,98194.12
2023-03-01T11:17:02.898Z,98187.18
2023-03-01T11:19:31.184Z,98182.01
2023-03-01T11:22:05.521Z,98174.52
2023-03-01T11:24:45.178Z,98176.48
2023-03-01T11:27:25.160Z,98171.44
2023-03-01T11:30:14.812Z,98168.91
2023-03-01T11:33:12.132Z,98159.56
2023-03-01T11:36:05.903Z,98155.64
2023-03-01T11:38:37.587Z,98155.17
2023-03-01T11:41:33.418Z,98156.21
2023-03-01T11:44:15.524Z,98155.12
2023-03-01T11:47:06.797Z,98152.95
2023-03-01T11:49:40.630Z,98146.96
2023-03-01T11:52:37.783Z,98146.09
2023-03-01T11:55:11.579Z,98138.63
2023-03-01T11:58:13.453Z,98134.73
2023-03-01T12:01:02.701Z,98129.66
2023-03-01T12:03:47.766Z,98121.31
2023-03-01T12:06:44.220Z,98117.34
2023-03-01T12:09:18.251Z,98114.94
2023-03-01T12:12:03.168Z,98113.98
2023-03-01T12:14:37.408Z,98113.50
2023-03-01T12:17:56.727Z,98114.42
2023-03-01T12:20:38.572Z,98108.31
2023-03-01T12:23:28.602Z,98112.16
2023-03-01T12:26:04.698Z,98105.54
2023-03-01T12:29:20.816Z,98099.64
2023-03-01T12:32:13.358Z,98100.62
2023-03-01T12:34:44.640Z,98099.09
2023-03-01T12:37:18.411Z,98094.50
2023-03-01T12:40:04.788Z,98097.78
2023-03-01T12:43:00.939Z,98095.41
2023-03-01T12:45:47.075Z,98095.81
2023-03-01T12:48:36.013Z,98094.76
2023-03-01T12:51:15.240Z,98089.73
2023-03-01T12:53:48.187Z,98084.54
2023-03-01T12:56:28.783Z,98084.83
2023-03-01T12:59:02.690Z,98080.39
2023-03-01T13:02:09.214Z,98081.88
2023-03-01T13:04:39.909Z,98082.59
2023-03-01T13:07:10.926Z,98081.10
2023-03-01T13:09:44.645Z,98076.36
2023-03-01T13:12:50.738Z,98074.73
2023-03-01T13:15:25.112Z,98069.60
2023-03-01T13:18:04.932Z,98070.39
2023-03-01T13:20:46.347Z,98069.74
2023-03-01T13:23:20.756Z,98067.40
2023-03-01T13:25:58.551Z,98063.80
2023-03-01T13:28:32.692Z,98056.98
2023-03-01T13:31:02.455Z,98053.86
2023-03-01T13:33:30.454Z,98056.02
2023-03-01T13:36:00.269Z,98056.85
2023-03-01T13:38:38.682Z,98054.88
2023-03-01T13:41:07.260Z,98055.16
2023-03-01T13:43:41.981Z,98052.02
2023-03-01T13:46:13.062Z,98052.15
2023-03-01T13:48:41.722Z,98052.63
2023-03-01T13:51:13.114Z,98052.45
2023-03-01T13:53:45.183Z,98055.30
2023-03-01T13:56:16.181Z,98057.21
2023-03-01T13:59:02.699Z,98055.48
2023-03-01T14:01:37.386Z,98054.05
2023-03-01T14:04:32.498Z,98046.58
2023-03-01T14:07:18.712Z,98044.24
2023-03-01T14:09:52.304Z,98045.66
2023-03-01T14:12:27.976Z,98046.10
2023-03-01T14:15:02.562Z,98043.84
2023-03-01T14:17:47.503Z,98041.20
2023-03-01T14:20:20.482Z,98044.27
2023-03-01T14:22:51.665Z,98045.11
2023-03-01T14:25:28.022Z,98043.58
2023-03-01T14:28:00.245Z,98041.88
2023-03-01T14:30:33.882Z,98043.95
2023-03-01T14:33:05.067Z,98043.58
2023-03-01T14:35:35.807Z,98043.47
2023-03-01T14:38:04.558Z,98040.33
2023-03-01T14:40:38.163Z,98036.18
2023-03-01T14:43:18.811Z,98038.19
2023-03-01T14:45:51.769Z,98035.13
2023-03-01T14:48:20.490Z,98031.63
2023-03-01T14:50:49.893Z,98022.05
2023-03-01T14:53:23.089Z,98016.41
2023-03-01T14:55:56.894Z,98014.83
2023-03-01T14:58:27.126Z,98019.33
2023-03-01T15:00:58.810Z,98021.48
2023-03-01T15:03:38.242Z,98021.59
2023-03-01T15:06:08.340Z,98017.94
2023-03-01T15:08:38.232Z,98018.55
2023-03-01T15:11:25.573Z,98020.33
2023-03-01T15:13:55.344Z,98021.48
2023-03-01T15:16:34.252Z,98020.90
2023-03-01T15:19:06.623Z,98016.86
2023-03-01T15:21:38.369Z,98013.94
2023-03-01T15:24:24.712Z,98013.32
2023-03-01T15:27:03.044Z,98017.10
2023-03-01T15:29:34.562Z,98019.80
2023-03-01T15:32:06.572Z,98014.08
2023-03-01T15:34:40.484Z,98015.96
2023-03-01T15:37:45.887Z,98017.13
2023-03-01T15:40:22.187Z,98018.27
2023-03-01T15:42:50.334Z,98017.40
2023-03-01T15:45:21.892Z,98014.28
2023-03-01T15:47:59.036Z,98013.77
2023-03-01T15:50:40.921Z,98011.90
2023-03-01T15:53:15.296Z,98016.44
2023-03-01T15:55:43.348Z,98013.98
2023-03-01T15:58:15.801Z,98019.87
2023-03-01T16:00:59.398Z,98027.33
2023-03-01T16:03:29.496Z,98031.70
2023-03-01T16:05:57.895Z,98033.98
2023-03-01T16:08:26.020Z,98034.75
2023-03-01T16:10:55.759Z,98039.16
2023-03-01T16:13:24.262Z,98043.05
2023-03-01T16:15:52.534Z,98048.45
2023-03-01T16:18:20.612Z,98048.15
2023-03-01T16:20:50.075Z,98048.88
2023-03-01T16:23:18.004Z,98047.42
2023-03-01T16:25:46.010Z,98043.77
2023-03-01T16:28:15.260Z,98046.39
2023-03-01T16:30:49.231Z,98046.92
2023-03-01T16:33:28.606Z,98049.88
2023-03-01T16:36:10.924Z,98055.48
2023-03-01T16:38:39.678Z,98057.00
2023-03-01T16:41:13.464Z,98061.25
2023-03-01T16:43:42.250Z,98060.32
2023-03-01T16:46:18.836Z,98058.55
2023-03-01T16:48:48.008Z,98062.92
2023-03-01T16:51:16.984Z,98062.60
2023-03-01T16:53:47.090Z,98066.41
2023-03-01T16:56:16.525Z,98069.71
2023-03-01T16:58:44.681Z,98068.41
2023-03-01T17:01:19.116Z,98072.45
2023-03-01T17:03:49.788Z,98070.10
2023-03-01T17:06:21.628Z,98068.36
2023-03-01T17:08:49.768Z,98062.54
2023-03-01T17:11:19.821Z,98061.65
2023-03-01T17:13:48.752Z,98061.65
2023-03-01T17:16:18.806Z,98061.05
2023-03-01T17:18:47.480Z,98058.89
2023-03-01T17:21:17.543Z,98058.52
2023-03-01T17:23:46.496Z,98058.96
2023-03-01T17:26:14.509Z,98058.58
2023-03-01T17:28:44.060Z,98059.20
2023-03-01T17:31:12.454Z,98059.52
2023-03-01T17:33:40.509Z,98058.09
2023-03-01T17:36:08.960Z,98055.64
2023-03-01T17:38:37.586Z,98058.61
2023-03-01T17:41:05.634Z,98057.36
2023-03-01T17:43:35.306Z,98056.69
2023-03-01T17:46:04.176Z,98055.56
2023-03-01T17:48:32.206Z,98052.59
2023-03-01T17:51:00.270Z,98051.02
2023-03-01T17:53:28.865Z,98051.64
2023-03-01T17:56:05.999Z,98049.83
2023-03-01T17:58:34.418Z,98054.36
2023-03-01T18:01:14.010Z,98056.73
2023-03-01T18:03:46.596Z,98055.70
2023-03-01T18:06:27.126Z,98054.83
2023-03-01T18:08:55.645Z,98056.52
2023-03-01T18:11:25.087Z,98056.95
2023-03-01T18:13:54.732Z,98056.24
2023-03-01T18:16:23.398Z,98061.12
2023-03-01T18:18:56.569Z,98061.55
2023-03-01T18:21:24.847Z,98064.20
2023-03-01T18:23:53.432Z,98066.22
2023-03-01T18:26:25.100Z,98065.59
2023-03-01T18:28:53.926Z,98063.39
2023-03-01T18:31:22.823Z,98065.67
2023-03-01T18:33:55.221Z,98067.09
2023-03-01T18:36:26.325Z,98066.53
2023-03-01T18:38:58.072Z,98069.55
2023-03-01T18:41:28.035Z,98072.14
2023-03-01T18:43:57.672Z,98072.45
2023-03-01T18:46:26.692Z,98076.64
2023-03-01T18:48:55.551Z,98076.91
2023-03-01T18:51:26.440Z,98075.90
2023-03-01T18:53:55.371Z,98081.16
2023-03-01T18:56:23.413Z,98081.84
2023-03-01T18:58:51.599Z,98079.83
2023-03-01T19:01:25.760Z,98079.24
2023-03-01T19:03:56.463Z,98075.88
2023-03-01T19:06:28.268Z,98073.86
2023-03-01T19:08:56.499Z,98071.14
2023-03-01T19:11:27.208Z,98071.21
2023-03-01T19:13:55.276Z,98070.13
2023-03-01T19:16:29.558Z,98072.95
2023-03-01T19:19:02.492Z,98076.08
2023-03-01T19:21:32.536Z,98076.45
2023-03-01T19:24:02.675Z,98077.45
2023-03-01T19:26:32.084Z,98081.07
2023-03-01T19:29:01.014Z,98084.36
2023-03-01T19:31:31.059Z,98089.73
2023-03-01T19:34:10.593Z,98090.27
2023-03-01T19:36:42.904Z,98089.61
2023-03-01T19:39:13.972Z,98092.91
2023-03-01T19:41:43.967Z,98091.44
2023-03-01T19:44:12.691Z,98091.05
2023-03-01T19:46:41.503Z,98090.92
2023-03-01T19:49:10.246Z,98088.38
2023-03-01T19:51:39.523Z,98086.39
2023-03-01T19:54:09.900Z,98086.42
2023-03-01T19:56:38.769Z,98080.21
2023-03-01T19:59:07.706Z,98080.55
2023-03-01T20:01:37.908Z,98079.39
2023-03-01T20:04:06.771Z,98076.27
2023-03-01T20:06:36.085Z,98077.86
2023-03-01T20:09:18.996Z,98081.22
2023-03-01T20:11:48.856Z,98078.86
2023-03-01T20:14:17.473Z,98076.98
2023-03-01T20:16:45.769Z,98076.95
2023-03-01T20:19:14.026Z,98078.25
2023-03-01T20:21:42.203Z,98084.40
2023-03-01T20:24:10.290Z,98090.52
2023-03-01T20:26:38.657Z,98094.60
2023-03-01T20:29:08.167Z,98099.98
2023-03-01T20:31:36.238Z,98100.45
2023-03-01T20:34:04.708Z,98101.26
2023-03-01T20:36:34.263Z,98103.16
2023-03-01T20:39:02.691Z,98103.03
2023-03-01T20:41:31.763Z,98103.14
2023-03-01T20:44:00.498Z,98102.17
2023-03-01T20:46:32.710Z,98098.29
2023-03-01T20:49:01.225Z,98096.90
2023-03-01T20:51:29.813Z,98096.20
2023-03-01T20:53:57.868Z,98096.86
2023-03-01T20:56:27.293Z,98095.66
2023-03-01T20:59:06.201Z,98091.61
2023-03-01T21:01:34.471Z,98088.80
2023-03-01T21:04:02.964Z,98088.52
2023-03-01T21:06:32.073Z,98088.63
2023-03-01T21:09:00.342Z,98085.59
2023-03-01T21:11:28.500Z,98083.15
2023-03-01T21:13:56.975Z,98083.33
2023-03-01T21:16:25.925Z,98087.42
2023-03-01T21:18:54.688Z,98089.88
2023-03-01T21:21:24.168Z,98089.35
2023-03-01T21:23:53.969Z,98092.98
2023-03-01T21:26:25.427Z,98093.58
2023-03-01T21:28:58.561Z,98094.08
2023-03-01T21:31:29.103Z,98091.23
2023-03-01T21:33:59.207Z,98093.88
2023-03-01T21:36:29.433Z,98088.05
2023-03-01T21:39:00.837Z,98081.37
2023-03-01T21:41:32.136Z,98080.13
2023-03-01T21:44:03.061Z,98079.36
2023-03-01T21:46:36.881Z,98078.48
2023-03-01T21:49:05.842Z,98076.84
2023-03-01T21:51:35.422Z,98072.04
2023-03-01T21:54:03.904Z,98067.09
2023-03-01T21:56:35.248Z,98067.66
2023-03-01T21:59:03.527Z,98062.98
2023-03-01T22:01:32.379Z,98059.36
2023-03-01T22:04:03.248Z,98055.71
2023-03-01T22:06:41.015Z,98054.71
2023-03-01T22:09:13.895Z,98057.82
2023-03-01T22:11:46.604Z,98051.83
2023-03-01T22:14:16.556Z,98053.02
2023-03-01T22:16:46.381Z,98055.08
2023-03-01T22:19:16.250Z,98051.60
2023-03-01T22:21:49.186Z,98052.02
2023-03-01T22:24:19.748Z,98050.15
2023-03-01T22:26:48.959Z,98050.16
2023-03-01T22:29:24.081Z,98051.16
2023-03-01T22:31:52.802Z,98054.48
2023-03-01T22:34:21.832Z,98056.92
2023-03-01T22:36:50.358Z,98062.80
2023-03-01T22:39:21.217Z,98060.59
2023-03-01T22:41:50.357Z,98059.78
2023-03-01T22:44:21.624Z,98055.54
2023-03-01T22:46:50.318Z,98054.81
2023-03-01T22:49:19.743Z,98053.44
2023-03-01T22:51:48.616Z,98052.29
2023-03-01T22:54:18.325Z,98054.57
2023-03-01T22:56:46.849Z,98054.98
2023-03-01T22:59:19.046Z,98057.10
2023-03-01T23:01:48.142Z,98062.35
2023-03-01T23:04:18.445Z,98063.89
2023-03-01T23:06:54.382Z,98069.21
2023-03-01T23:09:26.484Z,98069.86
2023-03-01T23:11:55.862Z,98075.99
2023-03-01T23:14:25.752Z,98076.02
2023-03-01T23:16:54.372Z,98077.06
2023-03-01T23:19:23.246Z,98080.02
2023-03-01T23:21:51.462Z,98080.75
2023-03-01T23:24:21.766Z,98081.13
2023-03-01T23:26:56.417Z,98078.68
2023-03-01T23:29:24.388Z,98079.20
2023-03-01T23:31:55.739Z,98075.05
2023-03-01T23:34:25.639Z,98071.80
2023-03-01T23:36:55.025Z,98069.33
2023-03-01T23:39:23.236Z,98065.11
2023-03-01T23:41:51.616Z,98062.98
2023-03-01T23:44:21.493Z,98060.78
2023-03-01T23:46:50.720Z,98057.80
2023-03-01T23:49:22.191Z,98055.05
2023-03-01T23:51:50.217Z,98053.23
2023-03-01T23:54:20.885Z,98050.08
2023-03-01T23:56:48.921Z,98048.40
2023-03-01T23:59:22.914Z,98044.51
